Airfield :
LOGIN :

Register | Disclaimer

   EN    FR    IT 

 










Legend :    VFR   Marginal VFR   IFR   Intensive IFR   Very Intensive IFR
Visi :
Ceiling :
>= 8 km
>= 3000ft
5 to 8 km
1000 to 3000 ft
1500m to 5 km
500 to 1000 ft
800 to 1500m
200 to 500 ft
< 800m
< 200 ft
Symbols :   Thunderstorms  Fog  Heavy snow  Heavy precipitations  Wind > 20 kt
SIGMETs :     Misc.  Thunderstorms  Icing  Turbulence  Mountain Waves  Volcanic Ashes







- Airport Elevation : 83 ft
- IATA code : LHR
- Download approach charts


EGLL - London Heathrow

CURRENT METAR :
  • 261120Z AUTO 25014KT 9999 BKN023 20/13 Q1013 NOSIG

EXPIRED METARs :
  • 261050Z AUTO 26014KT 9999 BKN020 20/13 Q1014 NOSIG
  • 261020Z AUTO 26014KT 9999 BKN017 18/13 Q1014 NOSIG
  • 260950Z AUTO 25014KT 9999 BKN018 19/13 Q1014 NOSIG
  • 260920Z AUTO 25013KT 9999 BKN018 18/13 Q1014 NOSIG
  • 260850Z AUTO 25012KT 9999 BKN016 18/13 Q1014 NOSIG
  • 260820Z AUTO 25012KT 9999 SCT016 17/12 Q1014 NOSIG

TAF TAF EGLL
Valid from the 26 at 12:00 until the 27 at 18:00 UTC


261052Z 2612/2718 26012KT 9999 SCT018
PROB40
TEMPO 2612/2619 8000 SHRA BKN012
PROB40
TEMPO 2712/2718 27015G25KT 7000 SHRA
No reported NOTAMs for that airfield.



MET'MAP, your aeronautical weather chart ! - Copyright ORBIFLY December 2007 - Disclaimer

ORBIFLY MET'MAP TEAM :

Programming & Development : Alexandra Zaïnal
Concept & Development : Baudouin d'Aumeries
Co-Development & Prog : Marc-Olivier Méhu
Technical & hardware support : Manuel Goepfert

Contact : metmap@orbifly.com




SOURCES & CREDITS :

   NOAA